createdAt,value
2018-03-15T00:02:09.403Z,10.20
2018-03-15T00:04:37.638Z,9.13
2018-03-15T00:07:05.884Z,10.37
2018-03-15T00:09:34.894Z,10.07
2018-03-15T00:12:03.913Z,10.67
2018-03-15T00:14:32.150Z,10.00
2018-03-15T00:17:01.145Z,10.10
2018-03-15T00:19:30.160Z,10.07
2018-03-15T00:21:58.388Z,10.03
2018-03-15T00:24:26.638Z,10.43
2018-03-15T00:26:54.873Z,10.07
2018-03-15T00:29:23.120Z,10.33
2018-03-15T00:31:52.117Z,10.13
2018-03-15T00:34:21.128Z,10.10
2018-03-15T00:36:49.356Z,11.10
2018-03-15T00:39:17.861Z,10.50
2018-03-15T00:41:46.089Z,10.80
2018-03-15T00:44:14.348Z,10.83
2018-03-15T00:46:42.580Z,11.13
2018-03-15T00:49:11.591Z,11.07
2018-03-15T00:51:39.828Z,11.23
2018-03-15T00:54:08.072Z,10.67
2018-03-15T00:56:36.316Z,10.77
2018-03-15T00:59:05.316Z,11.00
2018-03-15T01:01:33.557Z,10.73
2018-03-15T01:04:02.564Z,10.80
2018-03-15T01:06:30.807Z,11.87
2018-03-15T01:09:00.061Z,11.17
2018-03-15T01:11:28.295Z,11.90
2018-03-15T01:13:57.300Z,11.10
2018-03-15T01:16:26.292Z,11.77
2018-03-15T01:18:55.305Z,11.00
2018-03-15T01:21:23.532Z,11.23
2018-03-15T01:23:51.763Z,11.80
2018-03-15T01:26:20.007Z,12.10
2018-03-15T01:28:48.240Z,11.40
2018-03-15T01:31:16.501Z,12.70
2018-03-15T01:33:44.730Z,12.10
2018-03-15T01:36:12.990Z,11.00
2018-03-15T01:38:41.213Z,12.10
2018-03-15T01:41:09.740Z,12.13
2018-03-15T01:43:37.968Z,12.60
2018-03-15T01:46:06.211Z,12.57
2018-03-15T01:48:34.449Z,12.13
2018-03-15T01:51:02.708Z,11.90
2018-03-15T01:53:30.945Z,11.97
2018-03-15T01:55:59.225Z,12.03
2018-03-15T01:58:27.453Z,11.90
2018-03-15T02:00:56.470Z,11.83
2018-03-15T02:03:24.697Z,11.70
2018-03-15T02:05:52.952Z,12.13
2018-03-15T02:08:21.189Z,11.73
2018-03-15T02:10:49.441Z,12.17
2018-03-15T02:13:18.445Z,12.10
2018-03-15T02:15:47.462Z,12.30
2018-03-15T02:18:15.701Z,12.63
2018-03-15T02:20:44.712Z,12.40
2018-03-15T02:23:12.940Z,13.20
2018-03-15T02:25:41.188Z,12.90
2018-03-15T02:28:09.420Z,13.37
2018-03-15T02:30:38.430Z,12.93
2018-03-15T02:33:06.657Z,13.43
2018-03-15T02:35:34.888Z,13.20
2018-03-15T02:38:03.132Z,12.60
2018-03-15T02:40:32.137Z,11.97
2018-03-15T02:43:00.385Z,13.27
2018-03-15T02:45:28.641Z,12.60
2018-03-15T02:47:56.928Z,12.43
2018-03-15T02:50:25.149Z,12.40
2018-03-15T02:52:53.447Z,12.97
2018-03-15T02:55:22.388Z,13.23
2018-03-15T02:57:51.400Z,12.97
2018-03-15T03:00:19.633Z,13.37
2018-03-15T03:02:47.879Z,13.00
2018-03-15T03:05:16.110Z,13.73
2018-03-15T03:07:44.354Z,14.17
2018-03-15T03:10:12.588Z,13.90
2018-03-15T03:12:40.836Z,14.50
2018-03-15T03:15:09.060Z,14.07
2018-03-15T03:17:37.300Z,13.90
2018-03-15T03:20:05.535Z,14.50
2018-03-15T03:22:34.544Z,14.73
2018-03-15T03:25:02.772Z,14.43
2018-03-15T03:27:31.024Z,14.67
2018-03-15T03:29:59.260Z,15.17
2018-03-15T03:32:28.265Z,15.70
2018-03-15T03:34:56.509Z,15.53
2018-03-15T03:37:24.768Z,15.23
2018-03-15T03:39:53.005Z,14.63
2018-03-15T03:42:21.269Z,15.97
2018-03-15T03:44:49.490Z,15.87
2018-03-15T03:47:17.754Z,16.27
2018-03-15T03:49:45.988Z,16.53
2018-03-15T03:52:14.229Z,17.07
2018-03-15T03:54:43.246Z,17.60
2018-03-15T03:57:11.483Z,17.20
2018-03-15T03:59:39.720Z,18.20
2018-03-15T04:02:07.948Z,17.30
2018-03-15T04:04:36.968Z,18.07
2018-03-15T04:07:05.513Z,17.57
2018-03-15T04:09:33.749Z,17.77
2018-03-15T04:12:01.990Z,18.27
2018-03-15T04:14:30.229Z,17.37
2018-03-15T04:16:59.229Z,19.03
2018-03-15T04:19:28.239Z,19.23
2018-03-15T04:21:56.469Z,19.47
2018-03-15T04:24:24.762Z,19.20
2018-03-15T04:26:52.969Z,21.80
2018-03-15T04:29:21.213Z,22.03
2018-03-15T04:31:50.218Z,24.70
2018-03-15T04:34:19.233Z,25.07
2018-03-15T04:36:47.469Z,25.60
2018-03-15T04:39:16.478Z,26.73
2018-03-15T04:41:44.711Z,27.63
2018-03-15T04:44:12.956Z,27.20
2018-03-15T04:46:41.193Z,29.10
2018-03-15T04:49:10.201Z,29.93
2018-03-15T04:51:38.441Z,30.63
2018-03-15T04:54:06.689Z,31.03
2018-03-15T04:56:34.921Z,31.87
2018-03-15T04:59:03.165Z,31.30
2018-03-15T05:01:32.178Z,30.77
2018-03-15T05:04:01.162Z,31.23
2018-03-15T05:06:30.176Z,32.23
2018-03-15T05:08:58.420Z,33.20
2018-03-15T05:11:27.424Z,32.20
2018-03-15T05:13:56.419Z,32.70
2018-03-15T05:16:24.668Z,32.93
2018-03-15T05:18:52.904Z,30.57
2018-03-15T05:21:21.144Z,31.00
2018-03-15T05:23:49.388Z,28.97
2018-03-15T05:26:17.628Z,29.27
2018-03-15T05:28:45.860Z,30.50
2018-03-15T05:31:14.116Z,29.87
2018-03-15T05:33:42.326Z,29.70
2018-03-15T05:36:10.572Z,32.20
2018-03-15T05:38:39.616Z,32.20
2018-03-15T05:41:07.842Z,33.43
2018-03-15T05:43:36.845Z,32.57
2018-03-15T05:46:05.177Z,31.27
2018-03-15T05:48:33.412Z,34.20
2018-03-15T05:51:01.665Z,32.70
2018-03-15T05:53:29.897Z,32.10
2018-03-15T05:55:58.144Z,33.80
2018-03-15T05:58:26.403Z,32.57
2018-03-15T06:00:54.706Z,33.40
2018-03-15T06:03:22.936Z,32.47
2018-03-15T06:05:51.176Z,30.57
2018-03-15T06:08:19.412Z,31.47
2018-03-15T06:10:47.656Z,31.43
2018-03-15T06:13:15.889Z,31.63
2018-03-15T06:15:44.120Z,32.07
2018-03-15T06:18:12.360Z,31.07
2018-03-15T06:20:41.360Z,29.47
2018-03-15T06:23:10.374Z,27.23
2018-03-15T06:25:38.608Z,28.13
2018-03-15T06:28:07.624Z,27.63
2018-03-15T06:30:35.862Z,26.57
2018-03-15T06:33:04.112Z,27.83
2018-03-15T06:35:32.344Z,27.40
2018-03-15T06:38:00.593Z,26.50
2018-03-15T06:40:28.836Z,28.00
2018-03-15T06:42:57.068Z,26.93
2018-03-15T06:45:25.303Z,25.97
2018-03-15T06:47:53.548Z,25.47
2018-03-15T06:50:21.793Z,26.30
2018-03-15T06:52:50.040Z,26.20
2018-03-15T06:55:19.045Z,26.47
2018-03-15T06:57:48.059Z,24.77
2018-03-15T07:00:16.319Z,24.80
2018-03-15T07:02:44.572Z,24.10
2018-03-15T07:05:13.569Z,23.90
2018-03-15T07:07:42.576Z,22.00
2018-03-15T07:10:10.804Z,21.90
2018-03-15T07:12:39.056Z,20.50
2018-03-15T07:15:07.288Z,19.60
2018-03-15T07:17:36.297Z,19.53
2018-03-15T07:20:04.530Z,19.13
2018-03-15T07:22:32.777Z,20.10
2018-03-15T07:25:01.008Z,19.10
2018-03-15T07:27:29.237Z,19.53
2018-03-15T07:29:57.485Z,19.00
2018-03-15T07:32:25.720Z,18.97
2018-03-15T07:34:54.737Z,20.13
2018-03-15T07:37:22.975Z,19.37
2018-03-15T07:39:51.224Z,18.03
2018-03-15T07:42:19.458Z,18.33
2018-03-15T07:44:47.712Z,19.17
2018-03-15T07:47:16.713Z,18.83
2018-03-15T07:49:44.961Z,16.90
2018-03-15T07:52:13.194Z,18.17
2018-03-15T07:54:41.441Z,18.70
2018-03-15T07:57:09.671Z,18.40
2018-03-15T07:59:37.908Z,18.73
2018-03-15T08:02:06.435Z,19.50
2018-03-15T08:04:34.681Z,18.27
2018-03-15T08:07:03.196Z,19.17
2018-03-15T08:09:31.428Z,19.57
2018-03-15T08:11:59.657Z,18.43
2018-03-15T08:14:27.913Z,19.73
2018-03-15T08:16:57.214Z,19.50
2018-03-15T08:19:25.449Z,19.43
2018-03-15T08:21:53.676Z,19.20
2018-03-15T08:24:21.923Z,20.17
2018-03-15T08:26:50.158Z,19.03
2018-03-15T08:29:18.397Z,21.17
2018-03-15T08:31:46.633Z,18.67
2018-03-15T08:34:14.873Z,18.87
2018-03-15T08:36:43.112Z,19.43
2018-03-15T08:39:12.117Z,18.47
2018-03-15T08:41:40.572Z,18.13
2018-03-15T08:44:08.816Z,17.80
2018-03-15T08:46:37.055Z,17.43
2018-03-15T08:49:05.304Z,17.17
2018-03-15T08:51:34.301Z,17.43
2018-03-15T08:54:03.298Z,16.67
2018-03-15T08:56:31.553Z,16.87
2018-03-15T08:58:59.779Z,15.13
2018-03-15T09:01:28.024Z,15.23
2018-03-15T09:03:56.481Z,16.07
2018-03-15T09:06:25.610Z,16.03
2018-03-15T09:08:53.719Z,16.27
2018-03-15T09:11:21.964Z,15.63
2018-03-15T09:13:50.198Z,16.33
2018-03-15T09:16:19.213Z,16.03
2018-03-15T09:18:47.447Z,17.53
2018-03-15T09:21:15.692Z,16.60
2018-03-15T09:23:43.921Z,16.20
2018-03-15T09:26:12.162Z,17.23
2018-03-15T09:28:40.391Z,18.03
2018-03-15T09:31:08.637Z,16.77
2018-03-15T09:33:37.633Z,16.10
2018-03-15T09:36:05.885Z,17.07
2018-03-15T09:38:34.116Z,16.87
2018-03-15T09:41:02.353Z,16.07
2018-03-15T09:43:30.585Z,17.07
2018-03-15T09:45:58.851Z,16.60
2018-03-15T09:48:27.078Z,16.10
2018-03-15T09:50:55.323Z,15.57
2018-03-15T09:53:23.577Z,17.30
2018-03-15T09:55:51.810Z,15.90
2018-03-15T09:58:20.057Z,16.67
2018-03-15T10:00:49.067Z,16.93
2018-03-15T10:03:17.312Z,15.67
2018-03-15T10:05:46.369Z,16.83
2018-03-15T10:08:14.593Z,16.47
2018-03-15T10:10:43.597Z,16.53
2018-03-15T10:13:12.251Z,16.93
2018-03-15T10:15:40.489Z,16.77
2018-03-15T10:18:09.506Z,16.50
2018-03-15T10:20:37.739Z,16.93
2018-03-15T10:23:05.993Z,17.37
2018-03-15T10:25:34.238Z,16.13
2018-03-15T10:28:02.465Z,16.43
2018-03-15T10:30:30.717Z,18.00
2018-03-15T10:35:59.642Z,15.97
2018-03-15T10:38:27.890Z,17.77
2018-03-15T10:40:56.125Z,16.30
2018-03-15T10:43:24.371Z,17.67
2018-03-15T10:45:52.629Z,16.33
2018-03-15T10:48:20.869Z,16.50
2018-03-15T10:50:49.868Z,16.33
2018-03-15T10:53:18.893Z,15.80
2018-03-15T10:55:47.128Z,15.93
2018-03-15T10:58:16.148Z,16.07
2018-03-15T11:00:49.939Z,15.97
2018-03-15T11:03:18.190Z,16.50
2018-03-15T11:05:48.977Z,15.90
2018-03-15T11:08:22.771Z,16.07
2018-03-15T11:10:51.008Z,15.90
2018-03-15T11:13:20.021Z,16.90
2018-03-15T11:15:48.260Z,16.67
2018-03-15T11:18:16.526Z,17.60
2018-03-15T11:20:44.793Z,16.37
2018-03-15T11:23:13.032Z,15.53
2018-03-15T11:25:41.280Z,16.67
2018-03-15T11:28:10.273Z,16.70
2018-03-15T11:30:39.287Z,16.90
2018-03-15T11:33:07.519Z,16.73
2018-03-15T11:35:36.531Z,16.50
2018-03-15T11:38:04.760Z,17.27
2018-03-15T11:40:33.017Z,17.30
2018-03-15T11:43:01.257Z,17.57
2018-03-15T11:45:29.509Z,17.30
2018-03-15T11:47:58.516Z,17.57
2018-03-15T11:50:27.521Z,17.60
2018-03-15T11:52:55.751Z,17.63
2018-03-15T11:55:23.997Z,17.73
2018-03-15T11:57:52.230Z,18.63
2018-03-15T12:00:21.246Z,18.27
2018-03-15T12:02:49.471Z,17.60
2018-03-15T12:05:17.716Z,18.63
2018-03-15T12:07:46.018Z,19.53
2018-03-15T12:10:14.197Z,19.77
2018-03-15T12:12:42.445Z,20.30
2018-03-15T12:15:10.688Z,20.97
2018-03-15T12:17:38.926Z,20.73
2018-03-15T12:20:07.938Z,20.50
2018-03-15T12:22:36.177Z,20.63
2018-03-15T12:25:04.420Z,21.03
2018-03-15T12:27:32.710Z,21.53
2018-03-15T12:30:00.960Z,21.27
2018-03-15T12:32:29.184Z,19.70
2018-03-15T12:34:58.482Z,21.63
2018-03-15T12:37:27.499Z,20.70
2018-03-15T12:39:55.720Z,21.30
2018-03-15T12:42:23.976Z,21.27
2018-03-15T12:44:52.420Z,19.63
2018-03-15T12:47:20.663Z,21.13
2018-03-15T12:49:48.893Z,20.20
2018-03-15T12:52:17.145Z,20.83
2018-03-15T12:54:45.384Z,20.40
2018-03-15T12:57:13.635Z,19.53
2018-03-15T12:59:41.856Z,20.07
2018-03-15T13:02:10.872Z,20.70
2018-03-15T13:04:39.102Z,20.13
2018-03-15T13:07:07.344Z,20.17
2018-03-15T13:09:35.576Z,20.53
2018-03-15T13:12:03.823Z,20.73
2018-03-15T13:14:32.057Z,21.00
2018-03-15T13:17:00.297Z,20.93
2018-03-15T13:19:28.528Z,20.90
2018-03-15T13:21:56.777Z,20.93
2018-03-15T13:24:25.005Z,21.77
2018-03-15T13:26:54.027Z,22.07
2018-03-15T13:29:22.256Z,22.97
2018-03-15T13:31:50.504Z,21.03
2018-03-15T13:34:18.738Z,21.37
2018-03-15T13:36:47.281Z,21.17
2018-03-15T13:39:15.511Z,21.47
2018-03-15T13:41:44.137Z,22.07
2018-03-15T13:44:12.336Z,22.77
2018-03-15T13:46:40.584Z,20.47
2018-03-15T13:49:08.838Z,22.63
2018-03-15T13:51:37.062Z,22.27
2018-03-15T13:54:05.308Z,23.00
2018-03-15T13:56:33.536Z,23.40
2018-03-15T13:59:01.780Z,24.37
2018-03-15T14:01:30.019Z,23.10
2018-03-15T14:03:58.260Z,24.33
2018-03-15T14:06:26.492Z,23.50
2018-03-15T14:08:55.561Z,24.20
2018-03-15T14:11:23.740Z,22.73
2018-03-15T14:13:51.980Z,22.33
2018-03-15T14:16:20.217Z,24.00
2018-03-15T14:18:48.465Z,22.67
2018-03-15T14:21:16.696Z,23.37
2018-03-15T14:23:44.950Z,23.73
2018-03-15T14:26:13.188Z,25.00
2018-03-15T14:28:42.196Z,26.63
2018-03-15T14:31:11.201Z,25.97
2018-03-15T14:33:39.457Z,25.30
2018-03-15T14:36:07.699Z,25.33
2018-03-15T14:38:35.944Z,24.17
2018-03-15T14:41:04.176Z,23.97
2018-03-15T14:43:33.176Z,25.17
2018-03-15T14:46:01.418Z,26.10
2018-03-15T14:48:29.665Z,24.80
2018-03-15T14:50:57.892Z,25.70
2018-03-15T14:53:26.905Z,25.63
2018-03-15T14:55:55.140Z,25.13
2018-03-15T14:58:23.384Z,26.03
2018-03-15T15:00:51.624Z,24.90
2018-03-15T15:03:19.857Z,25.40
2018-03-15T15:05:48.113Z,25.00
2018-03-15T15:08:16.341Z,26.83
2018-03-15T15:10:44.587Z,25.67
2018-03-15T15:13:13.589Z,25.43
2018-03-15T15:15:42.600Z,25.80
2018-03-15T15:18:10.844Z,25.23
2018-03-15T15:20:39.084Z,24.87
2018-03-15T15:23:07.312Z,24.57
2018-03-15T15:25:35.556Z,23.97
2018-03-15T15:28:03.790Z,24.30
2018-03-15T15:30:32.041Z,25.67
2018-03-15T15:33:00.268Z,25.63
2018-03-15T15:35:28.516Z,25.63
2018-03-15T15:37:56.738Z,26.27
2018-03-15T15:40:25.748Z,24.30
2018-03-15T15:42:53.981Z,24.37
2018-03-15T15:45:22.233Z,25.70
2018-03-15T15:47:50.460Z,24.37
2018-03-15T15:50:19.520Z,25.07
2018-03-15T15:52:47.709Z,24.73
2018-03-15T15:55:16.724Z,24.57
2018-03-15T15:57:45.388Z,24.77
2018-03-15T16:00:13.624Z,25.60
2018-03-15T16:02:41.874Z,24.97
2018-03-15T16:05:10.116Z,24.50
2018-03-15T16:07:39.107Z,25.00
2018-03-15T16:10:08.109Z,25.23
2018-03-15T16:12:37.140Z,25.30
2018-03-15T16:15:05.353Z,23.90
2018-03-15T16:17:33.598Z,23.80
2018-03-15T16:20:01.832Z,25.10
2018-03-15T16:22:30.079Z,24.20
2018-03-15T16:24:59.077Z,23.43
2018-03-15T16:27:28.093Z,24.93
2018-03-15T16:29:56.325Z,23.80
2018-03-15T16:32:24.572Z,24.80
2018-03-15T16:34:52.804Z,24.10
2018-03-15T16:37:21.046Z,23.03
2018-03-15T16:39:49.285Z,24.17
2018-03-15T16:42:17.533Z,22.80
2018-03-15T16:44:45.767Z,23.90
2018-03-15T16:47:14.000Z,22.50
2018-03-15T16:49:42.629Z,23.13
2018-03-15T16:52:10.844Z,22.87
2018-03-15T16:54:39.077Z,22.67
2018-03-15T16:57:07.325Z,22.83
2018-03-15T16:59:35.557Z,22.93
2018-03-15T17:02:03.805Z,22.20
2018-03-15T17:04:32.801Z,22.33
2018-03-15T17:07:01.822Z,22.23
2018-03-15T17:09:30.469Z,23.10
2018-03-15T17:11:58.708Z,23.13
2018-03-15T17:14:26.949Z,22.73
2018-03-15T17:16:55.184Z,22.47
2018-03-15T17:19:23.420Z,22.73
2018-03-15T17:21:52.444Z,23.83
2018-03-15T17:24:20.683Z,23.70
2018-03-15T17:26:48.920Z,23.13
2018-03-15T17:29:17.172Z,24.53
2018-03-15T17:31:46.181Z,23.07
2018-03-15T17:34:15.198Z,21.87
2018-03-15T17:36:43.433Z,23.17
2018-03-15T17:39:12.452Z,25.60
2018-03-15T17:41:40.684Z,25.43
2018-03-15T17:44:08.922Z,34.10
2018-03-15T17:46:37.168Z,23.47
2018-03-15T17:49:05.737Z,23.53
2018-03-15T17:51:34.721Z,23.13
2018-03-15T17:54:03.729Z,26.17
2018-03-15T17:56:31.955Z,25.43
2018-03-15T17:59:00.197Z,24.53
2018-03-15T18:01:28.425Z,26.33
2018-03-15T18:03:56.692Z,26.47
2018-03-15T18:06:24.901Z,23.87
2018-03-15T18:08:53.149Z,24.30
2018-03-15T18:11:21.380Z,23.70
2018-03-15T18:13:49.632Z,24.93
2018-03-15T18:16:17.875Z,24.90
2018-03-15T18:18:46.102Z,25.33
2018-03-15T18:21:14.350Z,25.30
2018-03-15T18:23:42.572Z,25.77
2018-03-15T18:26:10.817Z,25.30
2018-03-15T18:28:39.050Z,25.27
2018-03-15T18:31:08.349Z,27.53
2018-03-15T18:33:36.573Z,25.40
2018-03-15T18:36:04.823Z,25.53
2018-03-15T18:38:33.051Z,26.00
2018-03-15T18:41:01.298Z,26.97
2018-03-15T18:43:30.289Z,25.47
2018-03-15T18:45:58.552Z,25.60
2018-03-15T18:48:26.783Z,24.73
2018-03-15T18:50:55.793Z,26.00
2018-03-15T18:53:24.032Z,25.43
2018-03-15T18:55:52.277Z,24.60
2018-03-15T18:58:20.560Z,24.67
2018-03-15T19:00:48.808Z,24.37
2018-03-15T19:03:17.045Z,24.27
2018-03-15T19:05:46.067Z,22.93
2018-03-15T19:08:14.321Z,25.10
2018-03-15T19:10:42.569Z,24.90
2018-03-15T19:13:10.801Z,24.47
2018-03-15T19:15:39.061Z,24.27
2018-03-15T19:18:07.294Z,24.63
2018-03-15T19:20:35.524Z,23.70
2018-03-15T19:23:03.768Z,24.63
2018-03-15T19:25:32.008Z,23.30
2018-03-15T19:28:00.252Z,23.40
2018-03-15T19:30:28.485Z,23.17
2018-03-15T19:32:56.736Z,22.50
2018-03-15T19:35:24.964Z,21.97
2018-03-15T19:37:53.218Z,22.80
2018-03-15T19:40:21.454Z,22.37
2018-03-15T19:42:49.688Z,22.30
2018-03-15T19:45:17.916Z,22.07
2018-03-15T19:47:46.934Z,21.70
2018-03-15T19:50:15.169Z,22.67
2018-03-15T19:52:43.408Z,22.60
2018-03-15T19:55:11.638Z,22.57
2018-03-15T19:57:39.882Z,22.70
2018-03-15T20:00:08.113Z,23.60
2018-03-15T20:02:36.361Z,22.70
2018-03-15T20:05:04.598Z,23.10
2018-03-15T20:07:32.846Z,22.97
2018-03-15T20:10:01.072Z,23.40
2018-03-15T20:12:30.089Z,24.03
2018-03-15T20:14:58.320Z,24.03
2018-03-15T20:17:26.566Z,24.07
2018-03-15T20:19:54.797Z,24.80
2018-03-15T20:22:28.654Z,24.80
2018-03-15T20:24:56.888Z,24.93
2018-03-15T20:27:30.700Z,25.53
2018-03-15T20:29:58.938Z,25.40
2018-03-15T20:32:33.662Z,26.77
2018-03-15T20:35:02.658Z,25.47
2018-03-15T20:37:31.660Z,27.23
2018-03-15T20:40:05.541Z,25.33
2018-03-15T20:42:33.768Z,27.17
2018-03-15T20:45:02.013Z,26.77
2018-03-15T20:47:35.933Z,27.17
2018-03-15T20:50:04.186Z,26.77
2018-03-15T20:52:33.180Z,27.27
2018-03-15T20:55:02.192Z,27.63
2018-03-15T20:57:30.424Z,29.67
2018-03-15T20:59:58.690Z,28.17
2018-03-15T21:02:26.893Z,27.57
2018-03-15T21:04:55.906Z,27.77
2018-03-15T21:07:24.136Z,29.07
2018-03-15T21:09:52.384Z,28.07
2018-03-15T21:12:20.614Z,29.70
2018-03-15T21:14:48.856Z,28.73
2018-03-15T21:17:17.091Z,29.73
2018-03-15T21:19:45.374Z,29.97
2018-03-15T21:22:13.561Z,31.27
2018-03-15T21:24:41.814Z,30.70
2018-03-15T21:27:10.114Z,31.47
2018-03-15T21:29:39.061Z,31.67
2018-03-15T21:32:07.303Z,31.70
2018-03-15T21:34:36.317Z,32.30
2018-03-15T21:37:04.552Z,31.77
2018-03-15T21:39:32.778Z,32.63
2018-03-15T21:42:01.020Z,33.77
2018-03-15T21:44:30.022Z,32.87
2018-03-15T21:46:58.272Z,35.27
2018-03-15T21:49:27.277Z,35.23
2018-03-15T21:51:56.287Z,35.93
2018-03-15T21:54:24.523Z,36.27
2018-03-15T21:56:52.770Z,36.03
2018-03-15T21:59:21.073Z,35.23
2018-03-15T22:01:49.295Z,36.00
2018-03-15T22:04:17.525Z,36.80
2018-03-15T22:06:45.773Z,38.33
2018-03-15T22:09:14.001Z,38.83
2018-03-15T22:11:42.247Z,37.37
2018-03-15T22:14:10.472Z,38.67
2018-03-15T22:16:38.715Z,39.57
2018-03-15T22:19:06.949Z,39.10
2018-03-15T22:21:35.196Z,37.60
2018-03-15T22:24:03.429Z,38.67
2018-03-15T22:26:32.449Z,39.13
2018-03-15T22:29:00.676Z,40.43
2018-03-15T22:31:28.925Z,39.63
2018-03-15T22:33:57.161Z,40.53
2018-03-15T22:36:25.404Z,40.30
2018-03-15T22:38:54.417Z,39.57
2018-03-15T22:41:22.669Z,39.97
2018-03-15T22:43:51.656Z,40.30
2018-03-15T22:46:20.675Z,39.93
2018-03-15T22:48:49.430Z,41.20
2018-03-15T22:51:17.628Z,41.40
2018-03-15T22:53:46.640Z,42.60
2018-03-15T22:56:14.878Z,42.10
2018-03-15T22:58:43.929Z,40.20
2018-03-15T23:01:12.165Z,41.53
2018-03-15T23:03:40.415Z,41.97
2018-03-15T23:06:08.641Z,43.77
2018-03-15T23:08:36.883Z,43.57
2018-03-15T23:11:05.881Z,41.07
2018-03-15T23:13:34.127Z,42.30
2018-03-15T23:16:02.352Z,43.43
2018-03-15T23:18:30.600Z,42.70
2018-03-15T23:20:58.828Z,41.93
2018-03-15T23:23:27.068Z,42.70
2018-03-15T23:25:55.296Z,42.57
2018-03-15T23:28:24.309Z,41.53
2018-03-15T23:30:52.544Z,43.47
2018-03-15T23:33:20.784Z,43.37
2018-03-15T23:35:49.016Z,44.07
2018-03-15T23:38:18.028Z,41.23
2018-03-15T23:40:46.273Z,41.03
2018-03-15T23:43:14.507Z,42.00
2018-03-15T23:45:42.861Z,42.40
2018-03-15T23:48:11.109Z,43.00
2018-03-15T23:50:40.114Z,41.70
2018-03-15T23:53:08.350Z,42.07
2018-03-15T23:55:36.588Z,44.03
2018-03-15T23:58:04.828Z,43.90
